sensor_id;sensor_type;location;lat;lon;timestamp;pressure;altitude;pressure_sealevel;temperature;humidity
40574;BME280;26283;49.020;8.644;2022-08-19T00:02:24;98821.56;;;26.40;47.11
40574;BME280;26283;49.020;8.644;2022-08-19T00:04:50;98825.47;;;26.39;47.20
40574;BME280;26283;49.020;8.644;2022-08-19T00:07:19;98832.12;;;26.38;47.19
40574;BME280;26283;49.020;8.644;2022-08-19T00:09:44;98834.87;;;26.38;47.27
40574;BME280;26283;49.020;8.644;2022-08-19T00:12:10;98839.28;;;26.39;47.25
40574;BME280;26283;49.020;8.644;2022-08-19T00:14:37;98840.41;;;26.38;47.26
40574;BME280;26283;49.020;8.644;2022-08-19T00:17:05;98838.78;;;26.37;47.22
40574;BME280;26283;49.020;8.644;2022-08-19T00:19:32;98837.97;;;26.37;47.36
40574;BME280;26283;49.020;8.644;2022-08-19T00:21:58;98849.03;;;26.37;47.41
40574;BME280;26283;49.020;8.644;2022-08-19T00:24:24;98841.56;;;26.37;47.37
40574;BME280;26283;49.020;8.644;2022-08-19T00:26:50;98846.28;;;26.37;47.31
40574;BME280;26283;49.020;8.644;2022-08-19T00:29:18;98839.12;;;26.36;47.25
40574;BME280;26283;49.020;8.644;2022-08-19T00:31:45;98843.84;;;26.35;47.29
40574;BME280;26283;49.020;8.644;2022-08-19T00:34:12;98843.03;;;26.35;47.24
40574;BME280;26283;49.020;8.644;2022-08-19T00:36:38;98850.50;;;26.34;47.29
40574;BME280;26283;49.020;8.644;2022-08-19T00:39:04;98853.25;;;26.34;47.23
40574;BME280;26283;49.020;8.644;2022-08-19T00:41:29;98848.88;;;26.33;47.25
40574;BME280;26283;49.020;8.644;2022-08-19T00:46:23;98838.97;;;26.32;47.33
40574;BME280;26283;49.020;8.644;2022-08-19T00:48:49;98838.97;;;26.32;47.39
40574;BME280;26283;49.020;8.644;2022-08-19T00:51:14;98834.59;;;26.31;47.36
40574;BME280;26283;49.020;8.644;2022-08-19T00:53:40;98818.00;;;26.31;47.34
40574;BME280;26283;49.020;8.644;2022-08-19T00:56:05;98805.34;;;26.30;47.38
40574;BME280;26283;49.020;8.644;2022-08-19T00:58:34;98799.00;;;26.29;47.40
40574;BME280;26283;49.020;8.644;2022-08-19T01:01:01;98802.59;;;26.30;47.40
40574;BME280;26283;49.020;8.644;2022-08-19T01:03:27;98814.75;;;26.29;47.50
40574;BME280;26283;49.020;8.644;2022-08-19T01:05:53;98814.25;;;26.27;47.45
40574;BME280;26283;49.020;8.644;2022-08-19T01:08:20;98824.16;;;26.28;47.48
40574;BME280;26283;49.020;8.644;2022-08-19T01:10:54;98815.88;;;26.28;47.41
40574;BME280;26283;49.020;8.644;2022-08-19T01:13:24;98822.56;;;26.27;47.39
40574;BME280;26283;49.020;8.644;2022-08-19T01:15:55;98827.25;;;26.26;47.50
40574;BME280;26283;49.020;8.644;2022-08-19T01:18:21;98838.31;;;26.26;47.48
40574;BME280;26283;49.020;8.644;2022-08-19T01:20:47;98837.50;;;26.26;47.48
40574;BME280;26283;49.020;8.644;2022-08-19T01:23:13;98836.69;;;26.25;47.42
40574;BME280;26283;49.020;8.644;2022-08-19T01:25:48;98817.69;;;26.24;47.48
40574;BME280;26283;49.020;8.644;2022-08-19T01:28:20;98814.94;;;26.24;47.30
40574;BME280;26283;49.020;8.644;2022-08-19T01:30:46;98817.69;;;26.24;47.50
40574;BME280;26283;49.020;8.644;2022-08-19T01:33:12;98820.78;;;26.22;47.54
40574;BME280;26283;49.020;8.644;2022-08-19T01:35:38;98825.50;;;26.22;47.46
40574;BME280;26283;49.020;8.644;2022-08-19T01:38:06;98828.25;;;26.22;47.50
40574;BME280;26283;49.020;8.644;2022-08-19T01:40:35;98834.91;;;26.21;47.46
40574;BME280;26283;49.020;8.644;2022-08-19T01:43:02;98826.19;;;26.19;47.46
40574;BME280;26283;49.020;8.644;2022-08-19T01:45:30;98822.25;;;26.20;47.56
40574;BME280;26283;49.020;8.644;2022-08-19T01:47:57;98811.19;;;26.20;47.52
40574;BME280;26283;49.020;8.644;2022-08-19T01:50:23;98808.00;;;26.18;47.52
40574;BME280;26283;49.020;8.644;2022-08-19T01:52:49;98801.66;;;26.17;47.53
40574;BME280;26283;49.020;8.644;2022-08-19T01:55:17;98811.91;;;26.17;47.54
40574;BME280;26283;49.020;8.644;2022-08-19T01:57:48;98815.78;;;26.16;47.48
40574;BME280;26283;49.020;8.644;2022-08-19T02:00:16;98819.69;;;26.15;47.45
40574;BME280;26283;49.020;8.644;2022-08-19T02:02:43;98832.38;;;26.16;47.57
40574;BME280;26283;49.020;8.644;2022-08-19T02:05:09;98829.59;;;26.16;47.59
40574;BME280;26283;49.020;8.644;2022-08-19T02:07:35;98816.94;;;26.15;47.64
40574;BME280;26283;49.020;8.644;2022-08-19T02:10:10;98813.38;;;26.14;47.61
40574;BME280;26283;49.020;8.644;2022-08-19T02:12:35;98808.97;;;26.13;47.56
40574;BME280;26283;49.020;8.644;2022-08-19T02:15:02;98810.94;;;26.13;47.61
40574;BME280;26283;49.020;8.644;2022-08-19T02:17:29;98820.34;;;26.12;47.63
40574;BME280;26283;49.020;8.644;2022-08-19T02:19:58;98830.25;;;26.13;47.62
40574;BME280;26283;49.020;8.644;2022-08-19T02:22:24;98825.06;;;26.11;47.56
40574;BME280;26283;49.020;8.644;2022-08-19T02:24:53;98835.31;;;26.11;47.63
40574;BME280;26283;49.020;8.644;2022-08-19T02:27:19;98830.91;;;26.10;47.70
40574;BME280;26283;49.020;8.644;2022-08-19T02:29:46;98831.72;;;26.10;47.71
40574;BME280;26283;49.020;8.644;2022-08-19T02:32:11;98828.16;;;26.10;47.67
40574;BME280;26283;49.020;8.644;2022-08-19T02:34:37;98833.69;;;26.10;47.70
40574;BME280;26283;49.020;8.644;2022-08-19T02:37:02;98828.16;;;26.10;47.75
40574;BME280;26283;49.020;8.644;2022-08-19T02:39:28;98834.81;;;26.09;47.76
40574;BME280;26283;49.020;8.644;2022-08-19T02:41:53;98834.00;;;26.08;47.74
40574;BME280;26283;49.020;8.644;2022-08-19T02:44:18;98826.53;;;26.09;47.81
40574;BME280;26283;49.020;8.644;2022-08-19T02:46:46;98825.72;;;26.08;47.85
40574;BME280;26283;49.020;8.644;2022-08-19T02:49:12;98820.53;;;26.07;47.88
40574;BME280;26283;49.020;8.644;2022-08-19T02:51:40;98813.38;;;26.06;47.88
40574;BME280;26283;49.020;8.644;2022-08-19T02:54:07;98815.00;;;26.07;47.81
40574;BME280;26283;49.020;8.644;2022-08-19T02:56:37;98816.16;;;26.06;47.77
40574;BME280;26283;49.020;8.644;2022-08-19T02:59:04;98814.53;;;26.05;47.81
40574;BME280;26283;49.020;8.644;2022-08-19T03:01:35;98804.28;;;26.05;47.92
40574;BME280;26283;49.020;8.644;2022-08-19T03:04:03;98810.97;;;26.04;47.94
40574;BME280;26283;49.020;8.644;2022-08-19T03:06:29;98808.19;;;26.04;47.93
40574;BME280;26283;49.020;8.644;2022-08-19T03:08:54;98810.16;;;26.04;47.92
40574;BME280;26283;49.020;8.644;2022-08-19T03:11:29;98800.25;;;26.03;47.86
40574;BME280;26283;49.020;8.644;2022-08-19T03:13:55;98810.47;;;26.02;47.82
40574;BME280;26283;49.020;8.644;2022-08-19T03:16:24;98816.31;;;26.01;48.02
40574;BME280;26283;49.020;8.644;2022-08-19T03:18:50;98817.94;;;26.02;48.05
40574;BME280;26283;49.020;8.644;2022-08-19T03:21:24;98825.41;;;26.01;48.02
40574;BME280;26283;49.020;8.644;2022-08-19T03:23:54;98822.66;;;26.01;47.85
40574;BME280;26283;49.020;8.644;2022-08-19T03:26:20;98830.13;;;26.01;47.98
40574;BME280;26283;49.020;8.644;2022-08-19T03:28:45;98824.59;;;26.01;48.09
40574;BME280;26283;49.020;8.644;2022-08-19T03:31:16;98836.78;;;26.00;48.06
40574;BME280;26283;49.020;8.644;2022-08-19T03:33:43;98828.50;;;26.00;48.04
40574;BME280;26283;49.020;8.644;2022-08-19T03:36:15;98821.38;;;25.99;48.09
40574;BME280;26283;49.020;8.644;2022-08-19T03:38:45;98821.38;;;25.99;48.08
40574;BME280;26283;49.020;8.644;2022-08-19T03:41:19;98823.69;;;25.97;48.08
40574;BME280;26283;49.020;8.644;2022-08-19T03:43:45;98817.81;;;25.98;48.13
40574;BME280;26283;49.020;8.644;2022-08-19T03:46:17;98813.78;;;25.95;48.16
40574;BME280;26283;49.020;8.644;2022-08-19T03:48:45;98815.72;;;25.95;48.12
40574;BME280;26283;49.020;8.644;2022-08-19T03:51:17;98816.53;;;25.95;48.20
40574;BME280;26283;49.020;8.644;2022-08-19T03:53:43;98820.44;;;25.94;48.20
40574;BME280;26283;49.020;8.644;2022-08-19T03:56:09;98824.34;;;25.93;48.24
40574;BME280;26283;49.020;8.644;2022-08-19T03:58:35;98827.91;;;25.94;48.28
40574;BME280;26283;49.020;8.644;2022-08-19T04:01:07;98832.63;;;25.93;48.29
40574;BME280;26283;49.020;8.644;2022-08-19T04:03:32;98821.91;;;25.92;48.30
40574;BME280;26283;49.020;8.644;2022-08-19T04:05:58;98818.81;;;25.93;48.36
40574;BME280;26283;49.020;8.644;2022-08-19T04:08:23;98821.09;;;25.91;48.40
40574;BME280;26283;49.020;8.644;2022-08-19T04:10:49;98818.31;;;25.91;48.46
40574;BME280;26283;49.020;8.644;2022-08-19T04:13:16;98820.28;;;25.91;48.49
40574;BME280;26283;49.020;8.644;2022-08-19T04:15:43;98826.94;;;25.90;48.55
40574;BME280;26283;49.020;8.644;2022-08-19T04:18:09;98837.97;;;25.90;48.52
40574;BME280;26283;49.020;8.644;2022-08-19T04:20:43;98844.63;;;25.89;48.53
40574;BME280;26283;49.020;8.644;2022-08-19T04:23:10;98852.91;;;25.89;48.61
40574;BME280;26283;49.020;8.644;2022-08-19T04:25:40;98852.13;;;25.88;48.66
40574;BME280;26283;49.020;8.644;2022-08-19T04:28:07;98840.25;;;25.88;48.66
40574;BME280;26283;49.020;8.644;2022-08-19T04:30:53;98838.31;;;25.88;48.67
40574;BME280;26283;49.020;8.644;2022-08-19T04:33:21;98833.13;;;25.87;48.72
40574;BME280;26283;49.020;8.644;2022-08-19T04:35:49;98840.59;;;25.86;48.69
40574;BME280;26283;49.020;8.644;2022-08-19T04:38:17;98839.78;;;25.86;48.76
40574;BME280;26283;49.020;8.644;2022-08-19T04:40:46;98848.06;;;25.86;48.79
40574;BME280;26283;49.020;8.644;2022-08-19T04:43:31;98863.00;;;25.85;48.89
40574;BME280;26283;49.020;8.644;2022-08-19T04:45:57;98860.56;;;25.83;48.90
40574;BME280;26283;49.020;8.644;2022-08-19T04:48:23;98851.94;;;25.85;48.94
40574;BME280;26283;49.020;8.644;2022-08-19T04:50:56;98855.84;;;25.84;48.92
40574;BME280;26283;49.020;8.644;2022-08-19T04:53:26;98845.94;;;25.83;49.03
40574;BME280;26283;49.020;8.644;2022-08-19T04:55:57;98849.53;;;25.83;49.05
40574;BME280;26283;49.020;8.644;2022-08-19T04:58:27;98845.94;;;25.83;49.08
40574;BME280;26283;49.020;8.644;2022-08-19T05:00:53;98856.19;;;25.82;49.22
40574;BME280;26283;49.020;8.644;2022-08-19T05:03:19;98862.03;;;25.81;49.17
40574;BME280;26283;49.020;8.644;2022-08-19T05:05:46;98860.06;;;25.81;49.24
40574;BME280;26283;49.020;8.644;2022-08-19T05:08:15;98856.50;;;25.81;49.21
40574;BME280;26283;49.020;8.644;2022-08-19T05:10:45;98856.84;;;25.79;49.25
40574;BME280;26283;49.020;8.644;2022-08-19T05:13:10;98854.06;;;25.79;49.22
40574;BME280;26283;49.020;8.644;2022-08-19T05:15:36;98849.69;;;25.78;49.21
40574;BME280;26283;49.020;8.644;2022-08-19T05:18:01;98852.44;;;25.78;49.29
40574;BME280;26283;49.020;8.644;2022-08-19T05:20:45;98856.34;;;25.77;49.28
40574;BME280;26283;49.020;8.644;2022-08-19T05:23:29;98861.88;;;25.77;49.34
40574;BME280;26283;49.020;8.644;2022-08-19T05:25:55;98872.44;;;25.75;49.29
40574;BME280;26283;49.020;8.644;2022-08-19T05:28:21;98868.56;;;25.76;49.27
40574;BME280;26283;49.020;8.644;2022-08-19T05:30:46;98873.25;;;25.76;49.32
40574;BME280;26283;49.020;8.644;2022-08-19T05:33:13;98881.53;;;25.76;49.39
40574;BME280;26283;49.020;8.644;2022-08-19T05:35:39;98882.69;;;25.75;49.41
40574;BME280;26283;49.020;8.644;2022-08-19T05:38:07;98887.38;;;25.74;49.40
40574;BME280;26283;49.020;8.644;2022-08-19T05:40:37;98899.56;;;25.73;49.51
40574;BME280;26283;49.020;8.644;2022-08-19T05:43:05;98907.03;;;25.73;49.44
40574;BME280;26283;49.020;8.644;2022-08-19T05:45:31;98920.03;;;25.72;49.42
40574;BME280;26283;49.020;8.644;2022-08-19T05:47:57;98916.44;;;25.72;49.36
40574;BME280;26283;49.020;8.644;2022-08-19T05:50:24;98918.41;;;25.71;49.48
40574;BME280;26283;49.020;8.644;2022-08-19T05:52:50;98914.81;;;25.71;49.50
40574;BME280;26283;49.020;8.644;2022-08-19T05:55:16;98922.28;;;25.70;49.50
40574;BME280;26283;49.020;8.644;2022-08-19T05:57:41;98926.69;;;25.71;49.48
40574;BME280;26283;49.020;8.644;2022-08-19T06:00:07;98936.91;;;25.71;49.48
40574;BME280;26283;49.020;8.644;2022-08-19T06:02:36;98935.28;;;25.70;49.48
40574;BME280;26283;49.020;8.644;2022-08-19T06:05:03;98934.47;;;25.69;49.52
40574;BME280;26283;49.020;8.644;2022-08-19T06:07:28;98927.31;;;25.68;49.55
40574;BME280;26283;49.020;8.644;2022-08-19T06:09:54;98940.31;;;25.68;49.54
40574;BME280;26283;49.020;8.644;2022-08-19T06:12:20;98940.31;;;25.68;49.41
40574;BME280;26283;49.020;8.644;2022-08-19T06:14:51;98930.41;;;25.67;49.52
40574;BME280;26283;49.020;8.644;2022-08-19T06:17:19;98936.75;;;25.67;49.26
40574;BME280;26283;49.020;8.644;2022-08-19T06:19:44;98937.06;;;25.66;49.21
40574;BME280;26283;49.020;8.644;2022-08-19T06:22:10;98939.00;;;25.65;49.32
40574;BME280;26283;49.020;8.644;2022-08-19T06:24:37;98929.09;;;25.64;49.32
40574;BME280;26283;49.020;8.644;2022-08-19T06:27:03;98931.06;;;25.64;49.23
40574;BME280;26283;49.020;8.644;2022-08-19T06:29:30;98931.06;;;25.64;49.25
40574;BME280;26283;49.020;8.644;2022-08-19T06:32:00;98931.88;;;25.64;49.37
40574;BME280;26283;49.020;8.644;2022-08-19T06:34:28;98941.28;;;25.63;49.41
40574;BME280;26283;49.020;8.644;2022-08-19T06:36:55;98936.56;;;25.64;49.51
40574;BME280;26283;49.020;8.644;2022-08-19T06:39:24;98931.34;;;25.62;49.52
40574;BME280;26283;49.020;8.644;2022-08-19T06:41:52;98929.72;;;25.61;49.51
40574;BME280;26283;49.020;8.644;2022-08-19T06:44:20;98938.81;;;25.61;49.57
40574;BME280;26283;49.020;8.644;2022-08-19T06:46:46;98936.38;;;25.60;49.47
40574;BME280;26283;49.020;8.644;2022-08-19T06:49:14;98931.66;;;25.60;49.47
40574;BME280;26283;49.020;8.644;2022-08-19T06:51:44;98926.47;;;25.59;49.47
40574;BME280;26283;49.020;8.644;2022-08-19T06:54:10;98934.75;;;25.59;49.48
40574;BME280;26283;49.020;8.644;2022-08-19T06:56:36;98933.13;;;25.58;49.43
40574;BME280;26283;49.020;8.644;2022-08-19T06:59:08;98938.66;;;25.58;49.50
40574;BME280;26283;49.020;8.644;2022-08-19T07:01:36;98933.13;;;25.58;49.45
40574;BME280;26283;49.020;8.644;2022-08-19T07:04:03;98924.03;;;25.57;49.65
40574;BME280;26283;49.020;8.644;2022-08-19T07:06:29;98930.69;;;25.56;49.67
40574;BME280;26283;49.020;8.644;2022-08-19T07:08:57;98939.78;;;25.57;49.72
40574;BME280;26283;49.020;8.644;2022-08-19T07:11:23;98931.50;;;25.57;49.61
40574;BME280;26283;49.020;8.644;2022-08-19T07:13:48;98938.16;;;25.56;49.52
40574;BME280;26283;49.020;8.644;2022-08-19T07:16:16;98935.41;;;25.56;49.70
40574;BME280;26283;49.020;8.644;2022-08-19T07:18:42;98942.06;;;25.55;49.62
40574;BME280;26283;49.020;8.644;2022-08-19T07:21:23;98944.81;;;25.55;49.52
40574;BME280;26283;49.020;8.644;2022-08-19T07:23:50;98944.03;;;25.54;49.75
40574;BME280;26283;49.020;8.644;2022-08-19T07:26:28;98948.75;;;25.54;49.54
40574;BME280;26283;49.020;8.644;2022-08-19T07:28:55;98951.50;;;25.54;49.64
40574;BME280;26283;49.020;8.644;2022-08-19T07:31:23;98953.44;;;25.53;49.79
40574;BME280;26283;49.020;8.644;2022-08-19T07:33:51;98949.87;;;25.53;49.79
40574;BME280;26283;49.020;8.644;2022-08-19T07:36:21;98947.13;;;25.53;49.62
40574;BME280;26283;49.020;8.644;2022-08-19T07:38:49;98943.53;;;25.52;49.78
40574;BME280;26283;49.020;8.644;2022-08-19T07:41:20;98952.62;;;25.53;49.90
40574;BME280;26283;49.020;8.644;2022-08-19T07:43:47;98944.69;;;25.51;49.81
40574;BME280;26283;49.020;8.644;2022-08-19T07:46:13;98956.53;;;25.52;49.64
40574;BME280;26283;49.020;8.644;2022-08-19T07:48:41;98950.19;;;25.51;49.66
40574;BME280;26283;49.020;8.644;2022-08-19T07:51:08;98949.37;;;25.51;49.59
40574;BME280;26283;49.020;8.644;2022-08-19T07:53:36;98943.88;;;25.51;49.56
40574;BME280;26283;49.020;8.644;2022-08-19T07:56:03;98953.28;;;25.50;49.51
40574;BME280;26283;49.020;8.644;2022-08-19T07:58:35;98953.28;;;25.50;49.64
40574;BME280;26283;49.020;8.644;2022-08-19T08:01:01;98958.78;;;25.50;49.89
40574;BME280;26283;49.020;8.644;2022-08-19T08:03:28;98961.56;;;25.50;49.76
40574;BME280;26283;49.020;8.644;2022-08-19T08:06:14;98958.78;;;25.50;49.92
40574;BME280;26283;49.020;8.644;2022-08-19T08:09:02;98954.41;;;25.49;50.10
40574;BME280;26283;49.020;8.644;2022-08-19T08:11:44;98954.41;;;25.49;49.97
40574;BME280;26283;49.020;8.644;2022-08-19T08:14:23;98959.94;;;25.49;50.00
40574;BME280;26283;49.020;8.644;2022-08-19T08:16:50;98955.53;;;25.48;50.13
40574;BME280;26283;49.020;8.644;2022-08-19T08:19:19;98951.97;;;25.47;50.08
40574;BME280;26283;49.020;8.644;2022-08-19T08:21:46;98954.72;;;25.47;49.95
40574;BME280;26283;49.020;8.644;2022-08-19T08:24:12;98950.03;;;25.48;50.38
40574;BME280;26283;49.020;8.644;2022-08-19T08:26:38;98957.50;;;25.47;50.82
40574;BME280;26283;49.020;8.644;2022-08-19T08:29:03;98959.44;;;25.47;50.66
40574;BME280;26283;49.020;8.644;2022-08-19T08:31:29;98953.91;;;25.47;50.24
40574;BME280;26283;49.020;8.644;2022-08-19T08:33:54;98957.50;;;25.47;50.24
40574;BME280;26283;49.020;8.644;2022-08-19T08:36:20;98961.06;;;25.48;50.20
40574;BME280;26283;49.020;8.644;2022-08-19T08:38:46;98964.97;;;25.47;49.97
40574;BME280;26283;49.020;8.644;2022-08-19T08:41:18;98965.78;;;25.47;50.02
40574;BME280;26283;49.020;8.644;2022-08-19T08:43:50;98964.97;;;25.47;49.93
40574;BME280;26283;49.020;8.644;2022-08-19T08:46:21;98969.34;;;25.48;50.21
40574;BME280;26283;49.020;8.644;2022-08-19T08:48:54;98963.81;;;25.48;50.09
40574;BME280;26283;49.020;8.644;2022-08-19T08:51:43;98964.97;;;25.47;50.14
40574;BME280;26283;49.020;8.644;2022-08-19T08:54:13;98958.63;;;25.46;50.00
40574;BME280;26283;49.020;8.644;2022-08-19T08:56:41;98964.16;;;25.46;49.95
40574;BME280;26283;49.020;8.644;2022-08-19T08:59:21;98958.94;;;25.45;49.94
40574;BME280;26283;49.020;8.644;2022-08-19T09:01:49;98958.63;;;25.46;50.39
40574;BME280;26283;49.020;8.644;2022-08-19T09:04:15;98966.09;;;25.46;50.53
40574;BME280;26283;49.020;8.644;2022-08-19T09:07:18;98963.34;;;25.46;49.99
40574;BME280;26283;49.020;8.644;2022-08-19T09:09:50;98967.72;;;25.47;50.05
40574;BME280;26283;49.020;8.644;2022-08-19T09:12:45;98963.34;;;25.46;49.81
40574;BME280;26283;49.020;8.644;2022-08-19T09:15:14;98973.22;;;25.47;49.69
40574;BME280;26283;49.020;8.644;2022-08-19T09:17:41;98966.91;;;25.46;49.87
40574;BME280;26283;49.020;8.644;2022-08-19T09:22:40;98969.34;;;25.48;49.52
40574;BME280;26283;49.020;8.644;2022-08-19T09:25:08;98976.81;;;25.47;49.20
40574;BME280;26283;49.020;8.644;2022-08-19T09:27:36;98972.09;;;25.48;49.44
40574;BME280;26283;49.020;8.644;2022-08-19T09:30:03;98966.59;;;25.48;49.64
40574;BME280;26283;49.020;8.644;2022-08-19T09:32:29;98958.31;;;25.48;49.45
40574;BME280;26283;49.020;8.644;2022-08-19T09:34:55;98950.84;;;25.48;49.48
40574;BME280;26283;49.020;8.644;2022-08-19T09:37:23;98952.47;;;25.49;49.36
40574;BME280;26283;49.020;8.644;2022-08-19T09:39:49;98953.28;;;25.50;49.55
40574;BME280;26283;49.020;8.644;2022-08-19T09:42:15;98948.56;;;25.50;49.33
40574;BME280;26283;49.020;8.644;2022-08-19T09:44:42;98949.87;;;25.53;49.50
40574;BME280;26283;49.020;8.644;2022-08-19T09:47:09;98950.34;;;25.55;49.13
40574;BME280;26283;49.020;8.644;2022-08-19T09:49:35;98952.78;;;25.56;49.33
40574;BME280;26283;49.020;8.644;2022-08-19T09:52:00;98948.56;;;25.59;49.24
40574;BME280;26283;49.020;8.644;2022-08-19T09:54:26;98958.44;;;25.60;49.31
40574;BME280;26283;49.020;8.644;2022-08-19T09:56:53;98954.88;;;25.59;49.11
40574;BME280;26283;49.020;8.644;2022-08-19T09:59:19;98954.88;;;25.59;49.14
40574;BME280;26283;49.020;8.644;2022-08-19T10:01:45;98947.75;;;25.58;48.96
40574;BME280;26283;49.020;8.644;2022-08-19T10:04:10;98950.50;;;25.58;48.99
40574;BME280;26283;49.020;8.644;2022-08-19T10:06:38;98958.44;;;25.60;48.57
40574;BME280;26283;49.020;8.644;2022-08-19T10:09:06;98957.97;;;25.58;48.44
40574;BME280;26283;49.020;8.644;2022-08-19T10:11:34;98955.22;;;25.58;48.36
40574;BME280;26283;49.020;8.644;2022-08-19T10:14:01;98962.03;;;25.60;48.47
40574;BME280;26283;49.020;8.644;2022-08-19T10:16:27;98968.34;;;25.61;48.29
40574;BME280;26283;49.020;8.644;2022-08-19T10:18:53;98969.16;;;25.61;48.63
40574;BME280;26283;49.020;8.644;2022-08-19T10:21:26;98966.41;;;25.61;48.54
40574;BME280;26283;49.020;8.644;2022-08-19T10:23:54;98952.31;;;25.63;48.09
40574;BME280;26283;49.020;8.644;2022-08-19T10:26:28;98960.59;;;25.63;47.84
40574;BME280;26283;49.020;8.644;2022-08-19T10:31:31;98942.59;;;25.66;47.85
40574;BME280;26283;49.020;8.644;2022-08-19T10:33:57;98956.37;;;25.66;47.97
40574;BME280;26283;49.020;8.644;2022-08-19T10:36:29;98951.69;;;25.66;47.74
40574;BME280;26283;49.020;8.644;2022-08-19T10:38:57;98949.41;;;25.68;47.70
40574;BME280;26283;49.020;8.644;2022-08-19T10:41:30;98949.41;;;25.68;47.76
40574;BME280;26283;49.020;8.644;2022-08-19T10:43:58;98951.84;;;25.70;47.92
40574;BME280;26283;49.020;8.644;2022-08-19T10:46:26;98952.66;;;25.70;47.81
40574;BME280;26283;49.020;8.644;2022-08-19T10:48:53;98948.75;;;25.71;48.06
40574;BME280;26283;49.020;8.644;2022-08-19T10:51:20;98942.91;;;25.73;47.72
40574;BME280;26283;49.020;8.644;2022-08-19T10:54:04;98942.59;;;25.74;48.01
40574;BME280;26283;49.020;8.644;2022-08-19T10:56:31;98945.34;;;25.74;48.11
40574;BME280;26283;49.020;8.644;2022-08-19T10:59:16;98948.59;;;25.76;47.87
40574;BME280;26283;49.020;8.644;2022-08-19T11:01:43;98941.09;;;25.77;48.22
40574;BME280;26283;49.020;8.644;2022-08-19T11:04:09;98928.91;;;25.78;47.90
40574;BME280;26283;49.020;8.644;2022-08-19T11:06:40;98933.31;;;25.79;48.13
40574;BME280;26283;49.020;8.644;2022-08-19T11:09:06;98920.31;;;25.79;47.67
40574;BME280;26283;49.020;8.644;2022-08-19T11:11:32;98915.28;;;25.81;47.26
40574;BME280;26283;49.020;8.644;2022-08-19T11:13:57;98911.37;;;25.82;47.53
40574;BME280;26283;49.020;8.644;2022-08-19T11:16:25;98901.16;;;25.83;47.85
40574;BME280;26283;49.020;8.644;2022-08-19T11:18:54;98907.16;;;25.85;47.48
40574;BME280;26283;49.020;8.644;2022-08-19T11:23:50;98902.13;;;25.87;47.39
40574;BME280;26283;49.020;8.644;2022-08-19T11:26:17;98902.94;;;25.87;47.34
40574;BME280;26283;49.020;8.644;2022-08-19T11:28:43;98907.31;;;25.88;47.55
40574;BME280;26283;49.020;8.644;2022-08-19T11:31:14;98903.44;;;25.89;47.57
40574;BME280;26283;49.020;8.644;2022-08-19T11:33:40;98907.81;;;25.90;47.58
40574;BME280;26283;49.020;8.644;2022-08-19T11:36:06;98901.63;;;25.93;47.21
40574;BME280;26283;49.020;8.644;2022-08-19T11:38:33;98901.63;;;25.93;46.99
40574;BME280;26283;49.020;8.644;2022-08-19T11:41:01;98908.78;;;25.94;46.49
40574;BME280;26283;49.020;8.644;2022-08-19T11:43:27;98910.41;;;25.95;46.53
40574;BME280;26283;49.020;8.644;2022-08-19T11:45:54;98908.44;;;25.96;47.17
40574;BME280;26283;49.020;8.644;2022-08-19T11:48:20;98908.12;;;25.98;46.93
40574;BME280;26283;49.020;8.644;2022-08-19T11:50:50;98905.81;;;26.00;46.58
40574;BME280;26283;49.020;8.644;2022-08-19T11:53:17;98908.59;;;26.00;46.68
40574;BME280;26283;49.020;8.644;2022-08-19T11:55:44;98914.91;;;26.00;46.49
40574;BME280;26283;49.020;8.644;2022-08-19T11:58:11;98909.06;;;26.02;45.79
40574;BME280;26283;49.020;8.644;2022-08-19T12:00:38;98913.44;;;26.03;45.80
40574;BME280;26283;49.020;8.644;2022-08-19T12:03:03;98913.13;;;26.04;46.20
40574;BME280;26283;49.020;8.644;2022-08-19T12:05:29;98915.56;;;26.06;46.17
40574;BME280;26283;49.020;8.644;2022-08-19T12:07:54;98915.22;;;26.07;46.54
40574;BME280;26283;49.020;8.644;2022-08-19T12:10:22;98919.63;;;26.08;46.09
40574;BME280;26283;49.020;8.644;2022-08-19T12:12:48;98928.72;;;26.09;46.15
40574;BME280;26283;49.020;8.644;2022-08-19T12:15:13;98918.97;;;26.11;46.07
40574;BME280;26283;49.020;8.644;2022-08-19T12:17:40;98926.09;;;26.12;46.06
40574;BME280;26283;49.020;8.644;2022-08-19T12:20:11;98922.19;;;26.13;46.12
40574;BME280;26283;49.020;8.644;2022-08-19T12:22:39;98924.63;;;26.15;45.85
40574;BME280;26283;49.020;8.644;2022-08-19T12:25:07;98915.53;;;26.14;45.27
40574;BME280;26283;49.020;8.644;2022-08-19T12:27:33;98921.56;;;26.16;45.77
40574;BME280;26283;49.020;8.644;2022-08-19T12:30:01;98912.94;;;26.18;45.33
40574;BME280;26283;49.020;8.644;2022-08-19T12:32:27;98909.84;;;26.19;45.64
40574;BME280;26283;49.020;8.644;2022-08-19T12:34:52;98912.25;;;26.21;45.45
40574;BME280;26283;49.020;8.644;2022-08-19T12:37:17;98911.13;;;26.22;45.42
40574;BME280;26283;49.020;8.644;2022-08-19T12:39:43;98918.25;;;26.23;44.87
40574;BME280;26283;49.020;8.644;2022-08-19T12:42:10;98905.25;;;26.23;44.78
40574;BME280;26283;49.020;8.644;2022-08-19T12:44:38;98899.41;;;26.25;44.91
40574;BME280;26283;49.020;8.644;2022-08-19T12:47:05;98901.03;;;26.26;45.65
40574;BME280;26283;49.020;8.644;2022-08-19T12:49:30;98902.66;;;26.27;45.51
40574;BME280;26283;49.020;8.644;2022-08-19T12:52:02;98896.78;;;26.28;44.84
40574;BME280;26283;49.020;8.644;2022-08-19T12:54:28;98891.78;;;26.31;45.58
40574;BME280;26283;49.020;8.644;2022-08-19T12:56:56;98898.94;;;26.32;45.11
40574;BME280;26283;49.020;8.644;2022-08-19T12:59:21;98903.31;;;26.33;45.06
40574;BME280;26283;49.020;8.644;2022-08-19T13:01:47;98894.69;;;26.34;45.20
40574;BME280;26283;49.020;8.644;2022-08-19T13:04:13;98910.13;;;26.35;45.24
40574;BME280;26283;49.020;8.644;2022-08-19T13:06:38;98905.09;;;26.37;44.57
40574;BME280;26283;49.020;8.644;2022-08-19T13:09:04;98898.44;;;26.38;44.24
40574;BME280;26283;49.020;8.644;2022-08-19T13:11:30;98907.53;;;26.39;44.24
40574;BME280;26283;49.020;8.644;2022-08-19T13:13:59;98895.34;;;26.40;44.09
40574;BME280;26283;49.020;8.644;2022-08-19T13:16:25;98895.78;;;26.42;43.64